sensor_id;sensor_type;location;lat;lon;timestamp;pressure;altitude;pressure_sealevel;temperature;humidity
33496;BME280;19836;55.812;37.560;2023-02-11T04:07:45;99568.41;;;-0.74;66.26
33496;BME280;19836;55.812;37.560;2023-02-11T04:10:13;99564.81;;;-0.82;66.45
33496;BME280;19836;55.812;37.560;2023-02-11T04:13:07;99562.06;;;-0.93;66.40
33496;BME280;19836;55.812;37.560;2023-02-11T04:15:45;99563.78;;;-0.95;66.62
33496;BME280;19836;55.812;37.560;2023-02-11T04:18:36;99561.13;;;-0.96;66.50
33496;BME280;19836;55.812;37.560;2023-02-11T04:56:45;99559.91;;;-1.25;67.96
33496;BME280;19836;55.812;37.560;2023-02-11T05:03:16;99557.19;;;-1.30;67.36
33496;BME280;19836;55.812;37.560;2023-02-11T05:06:17;99561.50;;;-1.35;67.48
33496;BME280;19836;55.812;37.560;2023-02-11T05:09:17;99558.84;;;-1.36;67.83
33496;BME280;19836;55.812;37.560;2023-02-11T05:16:37;99562.41;;;-1.31;67.54
33496;BME280;19836;55.812;37.560;2023-02-11T06:47:38;99534.00;;;-0.10;64.38
33496;BME280;19836;55.812;37.560;2023-02-11T06:50:20;99544.53;;;-0.10;64.40
33496;BME280;19836;55.812;37.560;2023-02-11T06:58:00;99532.22;;;-0.13;64.48
33496;BME280;19836;55.812;37.560;2023-02-11T07:16:14;99553.50;;;0.16;63.93
33496;BME280;19836;55.812;37.560;2023-02-11T07:42:40;99515.88;;;0.33;63.90
33496;BME280;19836;55.812;37.560;2023-02-11T07:51:18;99516.78;;;0.40;63.92
33496;BME280;19836;55.812;37.560;2023-02-11T10:28:51;99284.03;;;0.35;64.58
33496;BME280;19836;55.812;37.560;2023-02-11T10:31:48;99278.78;;;0.38;64.51
33496;BME280;19836;55.812;37.560;2023-02-11T10:34:15;99287.53;;;0.32;64.43
33496;BME280;19836;55.812;37.560;2023-02-11T10:36:43;99256.81;;;0.31;64.63
33496;BME280;19836;55.812;37.560;2023-02-11T10:39:21;99247.16;;;0.33;64.61
33496;BME280;19836;55.812;37.560;2023-02-11T10:41:52;99246.28;;;0.46;64.99
33496;BME280;19836;55.812;37.560;2023-02-11T10:44:34;99236.63;;;0.57;65.02
33496;BME280;19836;55.812;37.560;2023-02-11T10:47:04;99238.44;;;0.64;64.67
33496;BME280;19836;55.812;37.560;2023-02-11T10:49:42;99227.00;;;0.61;63.89
33496;BME280;19836;55.812;37.560;2023-02-11T10:52:26;99224.34;;;0.62;64.03
33496;BME280;19836;55.812;37.560;2023-02-11T10:55:03;99215.56;;;0.65;63.74
33496;BME280;19836;55.812;37.560;2023-02-11T10:57:39;99212.94;;;0.78;64.12
33496;BME280;19836;55.812;37.560;2023-02-11T11:03:00;99198.88;;;0.96;63.37
33496;BME280;19836;55.812;37.560;2023-02-11T11:05:35;99206.78;;;1.00;63.39
33496;BME280;19836;55.812;37.560;2023-02-11T11:08:05;99206.78;;;0.88;62.81
33496;BME280;19836;55.812;37.560;2023-02-11T11:13:34;99176.94;;;0.76;63.46
33496;BME280;19836;55.812;37.560;2023-02-11T11:16:16;99182.19;;;0.74;63.37
33496;BME280;19836;55.812;37.560;2023-02-11T11:18:44;99176.03;;;0.74;63.34
33496;BME280;19836;55.812;37.560;2023-02-11T11:23:37;99164.63;;;0.61;63.08
33496;BME280;19836;55.812;37.560;2023-02-11T11:26:11;99150.56;;;0.67;62.98
33496;BME280;19836;55.812;37.560;2023-02-11T11:28:42;99145.31;;;0.61;63.11
33496;BME280;19836;55.812;37.560;2023-02-11T11:31:29;99140.91;;;0.66;62.96
33496;BME280;19836;55.812;37.560;2023-02-11T11:33:58;99136.47;;;0.81;63.14
33496;BME280;19836;55.812;37.560;2023-02-11T11:36:37;99132.94;;;0.90;62.89
33496;BME280;19836;55.812;37.560;2023-02-11T11:39:25;99126.81;;;0.88;62.46
33496;BME280;19836;55.812;37.560;2023-02-11T11:48:05;99114.53;;;0.78;62.38
33496;BME280;19836;55.812;37.560;2023-02-11T11:50:53;99111.00;;;0.70;62.12
33496;BME280;19836;55.812;37.560;2023-02-11T11:53:38;99092.56;;;0.70;62.46
33496;BME280;19836;55.812;37.560;2023-02-11T11:56:19;99084.66;;;0.70;62.24
33496;BME280;19836;55.812;37.560;2023-02-11T11:58:53;99091.69;;;0.71;62.46
33496;BME280;19836;55.812;37.560;2023-02-11T12:12:56;99076.75;;;0.65;61.53
33496;BME280;19836;55.812;37.560;2023-02-11T12:15:31;99062.69;;;0.68;61.11
33496;BME280;19836;55.812;37.560;2023-02-11T12:26:20;99045.13;;;0.74;60.66
33496;BME280;19836;55.812;37.560;2023-02-11T12:40:33;99023.16;;;0.68;61.40
33496;BME280;19836;55.812;37.560;2023-02-11T12:43:38;99029.34;;;0.61;61.10
33496;BME280;19836;55.812;37.560;2023-02-11T12:54:37;99003.91;;;0.49;61.50
33496;BME280;19836;55.812;37.560;2023-02-11T13:00:05;98989.84;;;0.40;61.88
33496;BME280;19836;55.812;37.560;2023-02-11T13:05:23;98974.06;;;0.46;62.07
33496;BME280;19836;55.812;37.560;2023-02-11T13:07:50;98959.97;;;0.50;61.53
33496;BME280;19836;55.812;37.560;2023-02-11T13:12:55;98947.69;;;0.40;62.45
33496;BME280;19836;55.812;37.560;2023-02-11T13:15:47;98942.44;;;0.43;62.30
33496;BME280;19836;55.812;37.560;2023-02-11T13:21:35;98935.44;;;0.33;62.51
33496;BME280;19836;55.812;37.560;2023-02-11T13:24:24;98924.91;;;0.30;62.69
33496;BME280;19836;55.812;37.560;2023-02-11T13:35:32;98896.88;;;0.18;63.68
33496;BME280;19836;55.812;37.560;2023-02-11T13:38:00;98883.66;;;0.21;63.80
33496;BME280;19836;55.812;37.560;2023-02-11T13:40:37;98874.03;;;0.22;64.36
33496;BME280;19836;55.812;37.560;2023-02-11T13:43:19;98869.63;;;0.19;64.78
33496;BME280;19836;55.812;37.560;2023-02-11T13:45:48;98874.91;;;0.15;64.81
33496;BME280;19836;55.812;37.560;2023-02-11T13:48:20;98865.28;;;0.11;64.96
33496;BME280;19836;55.812;37.560;2023-02-11T13:50:49;98847.75;;;0.07;65.30
33496;BME280;19836;55.812;37.560;2023-02-11T13:53:16;98845.09;;;0.02;65.94
33496;BME280;19836;55.812;37.560;2023-02-11T13:55:45;98842.47;;;0.02;65.88
33496;BME280;19836;55.812;37.560;2023-02-11T14:14:21;98774.13;;;-0.23;68.28
33496;BME280;19836;55.812;37.560;2023-02-11T14:19:42;98765.38;;;-0.25;68.86
33496;BME280;19836;55.812;37.560;2023-02-11T14:38:51;98711.84;;;-0.21;70.28
33496;BME280;19836;55.812;37.560;2023-02-11T14:41:25;98718.00;;;-0.19;70.48
33496;BME280;19836;55.812;37.560;2023-02-11T14:44:00;98696.03;;;-0.18;70.75
33496;BME280;19836;55.812;37.560;2023-02-11T14:46:31;98682.88;;;-0.18;70.75
33496;BME280;19836;55.812;37.560;2023-02-11T14:49:04;98695.19;;;-0.20;70.61
33496;BME280;19836;55.812;37.560;2023-02-11T14:52:33;98675.88;;;-0.21;70.70
33496;BME280;19836;55.812;37.560;2023-02-11T14:57:33;98676.78;;;-0.22;71.20
33496;BME280;19836;55.812;37.560;2023-02-11T15:00:03;98673.25;;;-0.21;71.30
33496;BME280;19836;55.812;37.560;2023-02-11T15:02:36;98663.56;;;-0.17;71.74
33496;BME280;19836;55.812;37.560;2023-02-11T15:05:24;98654.81;;;-0.19;71.87
33496;BME280;19836;55.812;37.560;2023-02-11T15:07:57;98650.47;;;-0.23;71.86
33496;BME280;19836;55.812;37.560;2023-02-11T15:10:50;98647.81;;;-0.23;72.42
33496;BME280;19836;55.812;37.560;2023-02-11T15:13:20;98639.94;;;-0.20;72.49
33496;BME280;19836;55.812;37.560;2023-02-11T15:15:50;98631.16;;;-0.22;72.63
33496;BME280;19836;55.812;37.560;2023-02-11T15:18:39;98632.88;;;-0.20;73.11
33496;BME280;19836;55.812;37.560;2023-02-11T15:21:35;98630.25;;;-0.18;73.23
33496;BME280;19836;55.812;37.560;2023-02-11T15:25:08;98619.72;;;-0.18;73.26
33496;BME280;19836;55.812;37.560;2023-02-11T15:27:46;98622.34;;;-0.20;72.94
33496;BME280;19836;55.812;37.560;2023-02-11T15:32:55;98612.72;;;-0.17;73.66
33496;BME280;19836;55.812;37.560;2023-02-11T15:35:33;98606.56;;;-0.18;73.80
33496;BME280;19836;55.812;37.560;2023-02-11T15:50:33;98578.41;;;-0.09;74.68
33496;BME280;19836;55.812;37.560;2023-02-11T15:53:31;98569.66;;;-0.09;74.82
33496;BME280;19836;55.812;37.560;2023-02-11T15:56:19;98565.28;;;-0.10;75.04
33496;BME280;19836;55.812;37.560;2023-02-11T15:58:50;98571.41;;;-0.11;75.21
33496;BME280;19836;55.812;37.560;2023-02-11T16:01:18;98560.88;;;-0.11;75.37
33496;BME280;19836;55.812;37.560;2023-02-11T16:03:49;98553.00;;;-0.11;75.74
33496;BME280;19836;55.812;37.560;2023-02-11T16:06:23;98547.72;;;-0.08;76.08
33496;BME280;19836;55.812;37.560;2023-02-11T16:09:22;98549.47;;;-0.09;75.61
33496;BME280;19836;55.812;37.560;2023-02-11T16:16:59;98539.88;;;-0.17;76.27
33496;BME280;19836;55.812;37.560;2023-02-11T16:19:26;98530.25;;;-0.18;76.39
33496;BME280;19836;55.812;37.560;2023-02-11T16:21:54;98528.50;;;-0.19;76.86
33496;BME280;19836;55.812;37.560;2023-02-11T16:24:25;98521.47;;;-0.14;76.93
33496;BME280;19836;55.812;37.560;2023-02-11T16:26:59;98523.19;;;-0.10;76.97
33496;BME280;19836;55.812;37.560;2023-02-11T16:29:28;98508.25;;;-0.08;76.83
33496;BME280;19836;55.812;37.560;2023-02-11T16:32:28;98499.50;;;-0.10;77.04
33496;BME280;19836;55.812;37.560;2023-02-11T16:34:55;98511.78;;;-0.11;77.46
33496;BME280;19836;55.812;37.560;2023-02-11T16:37:23;98504.75;;;-0.10;77.67
33496;BME280;19836;55.812;37.560;2023-02-11T16:39:53;98503.88;;;-0.09;77.74
33496;BME280;19836;55.812;37.560;2023-02-11T16:42:19;98497.72;;;-0.08;78.02
33496;BME280;19836;55.812;37.560;2023-02-11T16:44:45;98473.97;;;-0.04;78.08
33496;BME280;19836;55.812;37.560;2023-02-11T16:47:24;98489.75;;;-0.02;77.82
33496;BME280;19836;55.812;37.560;2023-02-11T16:49:50;98485.41;;;-0.05;77.99
33496;BME280;19836;55.812;37.560;2023-02-11T16:52:17;98471.31;;;-0.01;78.47
33496;BME280;19836;55.812;37.560;2023-02-11T16:54:44;98456.41;;;0.00;78.78
33496;BME280;19836;55.812;37.560;2023-02-11T16:57:22;98440.66;;;-0.06;78.60
33496;BME280;19836;55.812;37.560;2023-02-11T16:59:48;98445.91;;;-0.03;79.11
33496;BME280;19836;55.812;37.560;2023-02-11T17:04:45;98446.75;;;0.00;79.04
33496;BME280;19836;55.812;37.560;2023-02-11T17:07:11;98452.91;;;-0.02;79.28
33496;BME280;19836;55.812;37.560;2023-02-11T17:09:38;98438.91;;;-0.04;79.78
33496;BME280;19836;55.812;37.560;2023-02-11T17:12:25;98439.72;;;0.01;79.92
33496;BME280;19836;55.812;37.560;2023-02-11T17:15:15;98431.78;;;0.04;79.75
33496;BME280;19836;55.812;37.560;2023-02-11T17:17:43;98420.34;;;0.08;79.94
33496;BME280;19836;55.812;37.560;2023-02-11T17:20:12;98428.19;;;0.12;79.63
33496;BME280;19836;55.812;37.560;2023-02-11T17:22:38;98412.38;;;0.12;79.88
33496;BME280;19836;55.812;37.560;2023-02-11T17:25:04;98411.56;;;0.09;80.10
33496;BME280;19836;55.812;37.560;2023-02-11T17:27:31;98398.41;;;0.07;79.76
33496;BME280;19836;55.812;37.560;2023-02-11T17:29:57;98405.44;;;0.07;79.71
33496;BME280;19836;55.812;37.560;2023-02-11T17:32:23;98394.94;;;0.04;80.07
33496;BME280;19836;55.812;37.560;2023-02-11T17:34:48;98395.81;;;0.06;80.21
33496;BME280;19836;55.812;37.560;2023-02-11T17:37:14;98395.81;;;0.06;80.42
33496;BME280;19836;55.812;37.560;2023-02-11T17:39:40;98401.91;;;0.11;80.46
33496;BME280;19836;55.812;37.560;2023-02-11T17:42:06;98389.56;;;0.13;80.49
33496;BME280;19836;55.812;37.560;2023-02-11T17:44:33;98393.09;;;0.12;80.74
33496;BME280;19836;55.812;37.560;2023-02-11T17:46:59;98384.31;;;0.13;81.19
33496;BME280;19836;55.812;37.560;2023-02-11T17:49:25;98386.03;;;0.17;80.92
33496;BME280;19836;55.812;37.560;2023-02-11T17:51:52;98378.13;;;0.15;81.49
33496;BME280;19836;55.812;37.560;2023-02-11T17:54:18;98366.72;;;0.15;81.28
33496;BME280;19836;55.812;37.560;2023-02-11T17:56:45;98363.22;;;0.16;81.36
33496;BME280;19836;55.812;37.560;2023-02-11T17:59:12;98359.69;;;0.17;81.35
33496;BME280;19836;55.812;37.560;2023-02-11T18:01:40;98357.91;;;0.19;81.39
33496;BME280;19836;55.812;37.560;2023-02-11T18:04:09;98339.47;;;0.19;81.15
33496;BME280;19836;55.812;37.560;2023-02-11T18:06:35;98332.50;;;0.15;81.15
33496;BME280;19836;55.812;37.560;2023-02-11T18:09:01;98329.81;;;0.19;81.35
33496;BME280;19836;55.812;37.560;2023-02-11T18:11:30;98324.53;;;0.21;81.51
33496;BME280;19836;55.812;37.560;2023-02-11T18:14:01;98323.63;;;0.23;81.42
33496;BME280;19836;55.812;37.560;2023-02-11T18:16:27;98310.41;;;0.25;81.29
33496;BME280;19836;55.812;37.560;2023-02-11T18:18:56;98319.19;;;0.27;80.82
33496;BME280;19836;55.812;37.560;2023-02-11T18:21:23;98306.94;;;0.26;81.11
33496;BME280;19836;55.812;37.560;2023-02-11T18:23:50;98295.50;;;0.25;80.79
33496;BME280;19836;55.812;37.560;2023-02-11T18:26:20;98291.13;;;0.26;81.05
33496;BME280;19836;55.812;37.560;2023-02-11T18:28:47;98273.50;;;0.31;81.13
33496;BME280;19836;55.812;37.560;2023-02-11T18:31:13;98272.59;;;0.32;81.15
33496;BME280;19836;55.812;37.560;2023-02-11T18:33:40;98265.59;;;0.31;80.98
33496;BME280;19836;55.812;37.560;2023-02-11T18:36:09;98270.00;;;0.30;80.84
33496;BME280;19836;55.812;37.560;2023-02-11T18:38:35;98269.06;;;0.33;81.48
33496;BME280;19836;55.812;37.560;2023-02-11T18:43:56;98253.25;;;0.34;81.07
33496;BME280;19836;55.812;37.560;2023-02-11T18:46:23;98251.47;;;0.36;81.10
33496;BME280;19836;55.812;37.560;2023-02-11T18:48:55;98245.28;;;0.39;81.00
33496;BME280;19836;55.812;37.560;2023-02-11T18:51:26;98233.00;;;0.38;80.91
33496;BME280;19836;55.812;37.560;2023-02-11T18:53:54;98240.06;;;0.36;80.78
33496;BME280;19836;55.812;37.560;2023-02-11T18:56:24;98254.97;;;0.38;80.89
33496;BME280;19836;55.812;37.560;2023-02-11T18:58:53;98236.56;;;0.34;80.72
33496;BME280;19836;55.812;37.560;2023-02-11T19:01:23;98235.72;;;0.33;80.80
33496;BME280;19836;55.812;37.560;2023-02-11T19:03:52;98254.06;;;0.41;80.93
33496;BME280;19836;55.812;37.560;2023-02-11T19:06:23;98243.50;;;0.41;80.78
33496;BME280;19836;55.812;37.560;2023-02-11T19:09:05;98229.53;;;0.36;80.62
33496;BME280;19836;55.812;37.560;2023-02-11T19:11:33;98225.13;;;0.35;81.20
33496;BME280;19836;55.812;37.560;2023-02-11T19:14:22;98212.84;;;0.37;80.87
33496;BME280;19836;55.812;37.560;2023-02-11T19:16:54;98202.25;;;0.40;80.74
33496;BME280;19836;55.812;37.560;2023-02-11T19:19:29;98210.09;;;0.44;80.72
33496;BME280;19836;55.812;37.560;2023-02-11T19:22:02;98214.44;;;0.48;80.94
33496;BME280;19836;55.812;37.560;2023-02-11T19:24:31;98210.81;;;0.52;81.25
33496;BME280;19836;55.812;37.560;2023-02-11T19:27:02;98211.69;;;0.54;80.96
33496;BME280;19836;55.812;37.560;2023-02-11T19:29:59;98197.63;;;0.54;81.16
33496;BME280;19836;55.812;37.560;2023-02-11T19:32:28;98202.91;;;0.54;80.95
33496;BME280;19836;55.812;37.560;2023-02-11T19:34:54;98206.41;;;0.56;81.02
33496;BME280;19836;55.812;37.560;2023-02-11T19:37:26;98197.59;;;0.58;81.40
33496;BME280;19836;55.812;37.560;2023-02-11T19:39:55;98199.38;;;0.55;81.17
33496;BME280;19836;55.812;37.560;2023-02-11T19:42:22;98192.34;;;0.57;81.15
33496;BME280;19836;55.812;37.560;2023-02-11T19:44:48;98183.50;;;0.59;81.46
33496;BME280;19836;55.812;37.560;2023-02-11T19:47:17;98187.88;;;0.60;81.25
33496;BME280;19836;55.812;37.560;2023-02-11T19:49:47;98186.06;;;0.62;81.48
33496;BME280;19836;55.812;37.560;2023-02-11T19:52:14;98186.97;;;0.63;81.36
33496;BME280;19836;55.812;37.560;2023-02-11T19:54:40;98180.81;;;0.62;81.46
33496;BME280;19836;55.812;37.560;2023-02-11T19:57:10;98173.00;;;0.58;81.10
33496;BME280;19836;55.812;37.560;2023-02-11T19:59:36;98162.41;;;0.61;81.16
33496;BME280;19836;55.812;37.560;2023-02-11T20:02:06;98170.22;;;0.65;81.34
33496;BME280;19836;55.812;37.560;2023-02-11T20:04:34;98160.56;;;0.66;81.66
33496;BME280;19836;55.812;37.560;2023-02-11T20:07:01;98150.91;;;0.65;81.67
33496;BME280;19836;55.812;37.560;2023-02-11T20:09:27;98147.44;;;0.63;81.21
33496;BME280;19836;55.812;37.560;2023-02-11T20:11:56;98143.00;;;0.65;81.79
33496;BME280;19836;55.812;37.560;2023-02-11T20:14:23;98142.06;;;0.67;81.82
33496;BME280;19836;55.812;37.560;2023-02-11T20:16:49;98138.59;;;0.67;81.49
33496;BME280;19836;55.812;37.560;2023-02-11T20:19:20;98128.97;;;0.66;81.80
33496;BME280;19836;55.812;37.560;2023-02-11T20:21:49;98141.25;;;0.64;81.96
33496;BME280;19836;55.812;37.560;2023-02-11T20:24:17;98137.69;;;0.68;81.89
33496;BME280;19836;55.812;37.560;2023-02-11T20:26:44;98135.84;;;0.73;81.37
33496;BME280;19836;55.812;37.560;2023-02-11T20:29:16;98133.09;;;0.79;81.84
33496;BME280;19836;55.812;37.560;2023-02-11T20:31:49;98128.78;;;0.75;81.89
33496;BME280;19836;55.812;37.560;2023-02-11T20:34:15;98122.56;;;0.79;81.93
33496;BME280;19836;55.812;37.560;2023-02-11T20:36:45;98124.34;;;0.78;81.84
33496;BME280;19836;55.812;37.560;2023-02-11T20:39:20;98114.66;;;0.79;82.12
33496;BME280;19836;55.812;37.560;2023-02-11T20:41:47;98118.16;;;0.81;81.70
33496;BME280;19836;55.812;37.560;2023-02-11T20:44:53;98117.22;;;0.83;82.02
33496;BME280;19836;55.812;37.560;2023-02-11T20:48:04;98111.13;;;0.80;81.68
33496;BME280;19836;55.812;37.560;2023-02-11T21:59:21;98097.47;;;1.04;81.99
33496;BME280;19836;55.812;37.560;2023-02-11T22:01:49;98098.34;;;1.06;81.49
33496;BME280;19836;55.812;37.560;2023-02-11T22:04:17;98095.78;;;1.01;82.12
